Adkins, Texas
Current Conditions -  °F | °C
As of 1:58 PM on Monday 24 Nov 2014 (Local Time) from KRND Reporting Station
Few Clouds Few Clouds  
Wind Chill: 64°   Ceiling: Unl
Heat Index: 64°   Visibility: 10mi
Dew Point: 26°   Wind: 2mph
Humidity: 24%   Direction: NA
Pressure: 30.06"   Gusts: NA
Location:  29.39°N, 98.24°W
Report Text: KRND 241958Z AUTO VRB02KT 10SM FEW130 18/M03 A3006 RMK AO2 SLP177 T01761033
Loading
Personal Weather Stations






























Interactive Weather Map New forecast layout! Learn more

10-Day Weather Forecast

Advertisements
Track Severe Weather on mobile